Time;durP1;ratioP1;P1;durP2;ratioP2;P2;SDS_P1;SDS_P2;PMS_P1;PMS_P2;Temp;Humidity;BMP_temperature;BMP_pressure;BME280_temperature;BME280_humidity;BME280_pressure;Samples;Min_cycle;Max_cycle;Signal;HPM_P1;HPM_P2
2022/07/27 00:00:28;;;;;;;;;;;;;;;20.89;60.32;99475.47;4438841;32;20030;-89
2022/07/27 00:02:54;;;;;;;;;;;;;;;21.01;60.33;99478.94;4438548;32;20242;-89
2022/07/27 00:05:19;;;;;;;;;;;;;;;21.06;60.33;99477.66;4438603;32;20004;-89
2022/07/27 00:07:45;;;;;;;;;;;;;;;20.98;60.32;99481.84;4438572;32;19992;-89
2022/07/27 00:10:10;;;;;;;;;;;;;;;20.91;60.32;99485.94;4438525;32;20024;-89
2022/07/27 00:12:35;;;;;;;;;;;;;;;20.94;60.33;99494.47;4434368;32;23467;-89
2022/07/27 00:15:01;;;;;;;;;;;;;;;20.81;60.31;99486.66;4435239;32;20001;-89
2022/07/27 00:17:26;;;;;;;;;;;;;;;20.95;60.33;99493.50;4440836;32;19989;-89
2022/07/27 00:19:51;;;;;;;;;;;;;;;20.91;60.32;99485.94;4440592;32;19984;-89
2022/07/27 00:22:16;;;;;;;;;;;;;;;21.09;60.33;99487.16;4445510;32;20008;-90
2022/07/27 00:24:42;;;;;;;;;;;;;;;20.88;60.32;99489.69;4439627;32;20019;-90
2022/07/27 00:27:07;;;;;;;;;;;;;;;20.97;60.32;99494.22;4453797;32;19993;-89
2022/07/27 00:29:33;;;;;;;;;;;;;;;20.70;60.31;99491.94;4439111;32;19989;-89
2022/07/27 00:31:58;;;;;;;;;;;;;;;21.05;60.32;99481.22;4431681;32;20013;-88
2022/07/27 00:34:23;;;;;;;;;;;;;;;20.61;60.30;99484.75;4427775;32;20346;-90
2022/07/27 00:36:48;;;;;;;;;;;;;;;20.68;60.31;99487.75;4440840;32;19989;-89
2022/07/27 00:39:13;;;;;;;;;;;;;;;20.85;60.31;99487.28;4440242;32;21759;-90
2022/07/27 00:41:39;;;;;;;;;;;;;;;20.80;60.32;99482.31;4441921;32;20017;-94
2022/07/27 00:44:05;;;;;;;;;;;;;;;20.74;60.32;99492.56;4443699;32;19989;-93
2022/07/27 00:46:31;;;;;;;;;;;;;;;20.64;60.31;99489.78;4443943;32;20281;-95
2022/07/27 00:49:01;;;;;;;;;;;;;;;20.62;60.30;99488.22;4443855;32;19989;-95
2022/07/27 00:51:26;;;;;;;;;;;;;;;20.57;60.31;99485.06;4443581;32;19969;-95
2022/07/27 00:53:52;;;;;;;;;;;;;;;20.67;60.31;99480.78;4438488;32;20034;-94
2022/07/27 00:56:19;;;;;;;;;;;;;;;20.50;60.30;99480.28;4437706;32;20028;-94
2022/07/27 00:58:49;;;;;;;;;;;;;;;20.36;60.29;99477.84;4443496;32;19973;-94
2022/07/27 01:01:15;;;;;;;;;;;;;;;20.23;60.29;99471.78;4442875;32;19977;-94
2022/07/27 01:03:40;;;;;;;;;;;;;;;20.06;60.27;99480.97;4443730;32;20295;-95
2022/07/27 01:06:05;;;;;;;;;;;;;;;20.10;60.28;99485.06;4443495;32;20000;-94
2022/07/27 01:08:31;;;;;;;;;;;;;;;20.01;60.28;99488.41;4443864;32;19995;-94
2022/07/27 01:10:56;;;;;;;;;;;;;;;20.11;60.28;99489.44;4444931;32;20044;-94
2022/07/27 01:13:22;;;;;;;;;;;;;;;20.01;60.28;99484.94;4446194;32;19986;-94
2022/07/27 01:15:47;;;;;;;;;;;;;;;20.09;60.28;99485.19;4438352;32;20009;-95
2022/07/27 01:18:25;;;;;;;;;;;;;;;20.19;60.28;99480.91;4441301;32;20298;-94
2022/07/27 01:20:51;;;;;;;;;;;;;;;20.24;60.29;99489.31;4441242;32;20466;-94
2022/07/27 01:23:16;;;;;;;;;;;;;;;20.37;60.29;99491.88;4435856;32;20003;-94
2022/07/27 01:25:41;;;;;;;;;;;;;;;20.36;60.29;99484.91;4432984;32;20027;-94
2022/07/27 01:28:09;;;;;;;;;;;;;;;20.41;60.30;99496.00;4436744;32;20039;-95
2022/07/27 01:30:34;;;;;;;;;;;;;;;20.45;60.29;99485.06;4439212;32;19973;-94
2022/07/27 01:33:03;;;;;;;;;;;;;;;20.42;60.30;99482.66;4428176;32;20047;-94
2022/07/27 01:35:29;;;;;;;;;;;;;;;20.40;60.30;99478.44;4435628;32;20004;-93
2022/07/27 01:37:56;;;;;;;;;;;;;;;20.52;60.29;99488.91;4438230;32;20001;-94
2022/07/27 01:40:22;;;;;;;;;;;;;;;20.36;60.29;99483.13;4428112;32;19981;-93
2022/07/27 01:42:47;;;;;;;;;;;;;;;20.33;60.29;99490.41;4451844;32;19997;-93
2022/07/27 01:45:12;;;;;;;;;;;;;;;20.15;60.28;99492.69;4438243;32;19990;-93
2022/07/27 01:47:37;;;;;;;;;;;;;;;20.06;60.27;99491.53;4435799;32;19981;-94
2022/07/27 01:50:03;;;;;;;;;;;;;;;19.99;60.27;99492.13;4442759;32;20058;-93
2022/07/27 01:52:31;;;;;;;;;;;;;;;19.98;60.27;99496.56;4436136;32;19985;-94
2022/07/27 01:54:56;;;;;;;;;;;;;;;19.80;60.27;99487.38;4438626;32;20001;-93
2022/07/27 01:57:22;;;;;;;;;;;;;;;19.77;60.27;99491.09;4433385;32;20025;-93
2022/07/27 01:59:47;;;;;;;;;;;;;;;19.85;60.26;99487.88;4442855;32;20211;-94
2022/07/27 02:02:14;;;;;;;;;;;;;;;19.98;60.27;99480.72;4431825;32;20008;-94
2022/07/27 02:04:40;;;;;;;;;;;;;;;19.98;60.27;99485.16;4443232;32;19953;-93
2022/07/27 02:07:05;;;;;;;;;;;;;;;19.95;60.27;99483.59;4442870;32;19977;-94
2022/07/27 02:09:30;;;;;;;;;;;;;;;19.86;60.27;99479.81;4442770;32;19989;-94
2022/07/27 02:14:40;;;;;;;;;;;;;;;20.01;60.28;99477.84;4444883;32;20042;-94
2022/07/27 02:17:05;;;;;;;;;;;;;;;20.00;60.26;99473.53;4442449;32;19989;-93
2022/07/27 02:19:30;;;;;;;;;;;;;;;19.91;60.26;99469.78;4442333;32;20041;-94
2022/07/27 02:21:55;;;;;;;;;;;;;;;19.75;60.25;99473.66;4442539;32;20330;-94
2022/07/27 02:24:21;;;;;;;;;;;;;;;19.69;60.25;99467.06;4442444;32;19996;-94
2022/07/27 02:26:46;;;;;;;;;;;;;;;19.73;60.26;99472.94;4436577;32;20330;-92
2022/07/27 02:29:11;;;;;;;;;;;;;;;19.73;60.26;99480.88;4442378;32;19989;-94
2022/07/27 02:31:36;;;;;;;;;;;;;;;19.55;60.25;99489.19;4442904;32;19985;-94
2022/07/27 02:34:02;;;;;;;;;;;;;;;19.57;60.25;99481.16;4442855;32;19981;-94
2022/07/27 02:36:28;;;;;;;;;;;;;;;19.62;60.25;99486.91;4441810;32;20330;-94
2022/07/27 02:38:53;;;;;;;;;;;;;;;19.56;60.25;99492.66;4443011;32;19981;-94
2022/07/27 02:41:18;;;;;;;;;;;;;;;19.57;60.25;99483.78;4442727;32;19995;-94
2022/07/27 02:43:44;;;;;;;;;;;;;;;19.56;60.25;99488.22;4442999;32;20040;-95
2022/07/27 02:46:09;;;;;;;;;;;;;;;19.59;60.25;99479.22;4443182;32;19980;-94
2022/07/27 02:48:34;;;;;;;;;;;;;;;19.72;60.26;99481.81;4443037;32;20011;-95
2022/07/27 02:51:00;;;;;;;;;;;;;;;19.62;60.25;99482.47;4444309;32;20003;-94
2022/07/27 02:53:26;;;;;;;;;;;;;;;19.61;60.24;99479.97;4445247;32;20274;-93
2022/07/27 02:55:51;;;;;;;;;;;;;;;19.58;60.25;99472.28;4451322;32;20016;-94
2022/07/27 02:58:16;;;;;;;;;;;;;;;19.58;60.25;99481.03;4449401;32;20225;-94
2022/07/27 03:00:41;;;;;;;;;;;;;;;19.62;60.25;99482.47;4433963;32;20003;-95
2022/07/27 03:03:07;;;;;;;;;;;;;;;19.61;60.25;99486.09;4436509;32;19993;-94
2022/07/27 03:05:35;;;;;;;;;;;;;;;19.58;60.25;99493.38;4431634;32;20147;-94
2022/07/27 03:08:00;;;;;;;;;;;;;;;19.54;60.25;99491.94;4441922;32;19973;-91
2022/07/27 03:10:25;;;;;;;;;;;;;;;19.58;60.25;99486.31;4441400;32;20015;-93
2022/07/27 03:12:51;;;;;;;;;;;;;;;19.44;60.24;99483.81;4441535;32;20001;-93
2022/07/27 03:15:16;;;;;;;;;;;;;;;19.42;60.24;99482.25;4430373;32;19973;-92
2022/07/27 03:17:41;;;;;;;;;;;;;;;19.47;60.25;99488.88;4441324;32;19981;-93
2022/07/27 03:20:07;;;;;;;;;;;;;;;19.41;60.24;99481.41;4441421;32;20369;-94
2022/07/27 03:22:57;;;;;;;;;;;;;;;;;;;;;
2022/07/27 03:25:23;;;;;;;;;;;;;;;19.50;60.24;99477.25;4432190;32;35477;-93
2022/07/27 03:27:48;;;;;;;;;;;;;;;19.54;60.24;99476.09;4436650;32;20322;-93
2022/07/27 03:30:13;;;;;;;;;;;;;;;19.52;60.24;99481.44;4447848;32;20032;-93
2022/07/27 03:32:39;;;;;;;;;;;;;;;19.61;60.25;99487.88;4441260;32;20068;-93
2022/07/27 03:35:05;;;;;;;;;;;;;;;19.62;60.25;99494.84;4441168;32;19969;-93
2022/07/27 03:37:30;;;;;;;;;;;;;;;19.58;60.25;99480.19;4429354;32;19973;-94
2022/07/27 03:39:55;;;;;;;;;;;;;;;19.42;60.24;99479.59;4426157;32;19997;-92
2022/07/27 03:42:20;;;;;;;;;;;;;;;19.58;60.25;99480.19;4425282;32;20204;-93
2022/07/27 03:44:46;;;;;;;;;;;;;;;19.59;60.25;99498.56;4438399;32;19977;-94
2022/07/27 03:47:11;;;;;;;;;;;;;;;19.61;60.24;99501.09;4424625;32;20012;-94
2022/07/27 03:49:36;;;;;;;;;;;;;;;19.53;60.24;99498.13;4423143;32;20001;-94
2022/07/27 03:52:01;;;;;;;;;;;;;;;19.61;60.25;99507.22;4427748;32;19981;-93
2022/07/27 03:54:27;;;;;;;;;;;;;;;19.72;60.26;99498.50;4427820;32;20015;-92
2022/07/27 03:56:52;;;;;;;;;;;;;;;19.85;60.27;99491.34;4426519;32;20000;-92
2022/07/27 03:59:17;;;;;;;;;;;;;;;19.91;60.26;99488.28;4426609;32;20001;-94
2022/07/27 04:01:53;;;;;;;;;;;;;;;20.11;60.28;99489.44;4428157;32;20001;-94
2022/07/27 04:04:21;;;;;;;;;;;;;;;20.05;60.28;99492.50;4428201;32;19954;-95
2022/07/27 04:06:46;;;;;;;;;;;;;;;20.09;60.28;99493.13;4427364;32;19987;-92
2022/07/27 04:09:12;;;;;;;;;;;;;;;20.13;60.27;99491.94;4424576;32;19986;-92
2022/07/27 04:11:37;;;;;;;;;;;;;;;20.11;60.28;99489.44;4427264;32;19993;-94
2022/07/27 04:14:02;;;;;;;;;;;;;;;20.33;60.29;99501.81;4428111;32;19993;-93
2022/07/27 04:16:27;;;;;;;;;;;;;;;20.24;60.29;99495.44;4427866;32;19987;-93
2022/07/27 04:18:53;;;;;;;;;;;;;;;20.25;60.28;99498.94;4428070;32;19989;-95
2022/07/27 04:21:18;;;;;;;;;;;;;;;20.34;60.29;99497.37;4428229;32;20334;-93
2022/07/27 04:23:43;;;;;;;;;;;;;;;20.41;60.29;99493.38;4427239;32;20036;-92
2022/07/27 04:26:08;;;;;;;;;;;;;;;20.68;60.30;99509.75;4426568;32;19999;-92
2022/07/27 04:28:34;;;;;;;;;;;;;;;20.61;60.30;99499.78;4427022;32;20044;-90
2022/07/27 04:30:59;;;;;;;;;;;;;;;20.74;60.31;99503.13;4427049;32;20020;-93
2022/07/27 04:33:24;;;;;;;;;;;;;;;20.79;60.31;99511.53;4426702;32;20019;-87
2022/07/27 04:35:49;;;;;;;;;;;;;;;20.95;60.32;99500.63;4439213;32;24271;-88
2022/07/27 04:38:15;;;;;;;;;;;;;;;21.11;60.33;99504.59;4425841;32;19985;-87
2022/07/27 04:40:40;;;;;;;;;;;;;;;21.30;60.33;99500.50;4439177;32;20721;-87
2022/07/27 04:43:05;;;;;;;;;;;;;;;21.39;60.34;99497.09;4447903;32;27789;-87
2022/07/27 04:45:30;;;;;;;;;;;;;;;21.28;60.33;99492.66;4440558;32;20019;-86
2022/07/27 04:47:56;;;;;;;;;;;;;;;21.25;60.33;99492.06;4440405;32;20060;-86
2022/07/27 04:50:21;;;;;;;;;;;;;;;21.33;60.34;99492.31;4428636;32;27231;-87
2022/07/27 04:52:46;;;;;;;;;;;;;;;21.38;60.34;99493.62;4440447;32;19996;-87
2022/07/27 04:55:12;;;;;;;;;;;;;;;21.56;60.36;99490.44;4440200;32;19993;-87
2022/07/27 04:57:40;;;;;;;;;;;;;;;21.51;60.35;99497.91;4440160;32;19989;-87
2022/07/27 05:00:06;;;;;;;;;;;;;;;21.50;60.35;99497.06;4452502;32;19996;-87
2022/07/27 05:02:31;;;;;;;;;;;;;;;21.57;60.35;99503.56;4440428;32;19974;-87
2022/07/27 05:04:58;;;;;;;;;;;;;;;21.72;60.36;99504.94;4453098;32;19981;-87
2022/07/27 05:07:23;;;;;;;;;;;;;;;21.75;60.36;99507.34;4440277;32;19989;-87
2022/07/27 05:09:48;;;;;;;;;;;;;;;21.82;60.37;99513.00;4440197;32;20036;-87
2022/07/27 05:12:14;;;;;;;;;;;;;;;21.99;60.37;99512.41;4437605;32;20013;-87
2022/07/27 05:14:39;;;;;;;;;;;;;;;22.03;60.38;99505.09;4429651;32;20004;-86
2022/07/27 05:17:05;;;;;;;;;;;;;;;22.29;60.39;99517.03;4437754;32;20027;-87
2022/07/27 05:19:30;;;;;;;;;;;;;;;22.36;60.39;99504.94;4454365;32;20338;-87
2022/07/27 05:21:55;;;;;;;;;;;;;;;22.44;60.40;99514.03;4454320;32;19989;-87
2022/07/27 05:24:21;;;;;;;;;;;;;;;22.59;60.41;99515.41;4439669;32;21478;-87
2022/07/27 05:26:46;;;;;;;;;;;;;;;22.81;60.42;99525.00;4439798;32;20909;-86
2022/07/27 05:29:11;;;;;;;;;;;;;;;22.85;60.42;99519.34;4453595;32;28486;-87
2022/07/27 05:31:36;;;;;;;;;;;;;;;23.03;60.42;99516.91;4439600;32;22588;-87
2022/07/27 05:34:01;;;;;;;;;;;;;;;23.12;60.42;99520.56;4439560;32;25976;-87
2022/07/27 05:36:27;;;;;;;;;;;;;;;23.18;60.43;99514.69;4439616;32;26514;-86
2022/07/27 05:38:52;;;;;;;;;;;;;;;23.28;60.44;99518.25;4454533;32;19989;-87
2022/07/27 05:41:21;;;;;;;;;;;;;;;23.38;60.44;99521.75;4436166;32;20011;-86
2022/07/27 05:43:46;;;;;;;;;;;;;;;23.50;60.46;99533.97;4436188;32;20037;-87
2022/07/27 05:46:11;;;;;;;;;;;;;;;23.65;60.45;99522.94;4440083;32;19995;-88
2022/07/27 05:48:36;;;;;;;;;;;;;;;23.70;60.46;99521.59;4439008;32;31490;-86
2022/07/27 05:51:02;;;;;;;;;;;;;;;23.79;60.46;99525.22;4439445;32;27205;-87
2022/07/27 05:53:27;;;;;;;;;;;;;;;24.00;60.48;99523.28;4452742;32;19989;-87
2022/07/27 05:55:53;;;;;;;;;;;;;;;24.16;60.48;99528.87;4439165;32;25878;-87
2022/07/27 05:58:18;;;;;;;;;;;;;;;24.17;60.48;99519.06;4454094;32;19981;-88
2022/07/27 06:00:43;;;;;;;;;;;;;;;24.30;60.49;99524.12;4453616;32;31937;-88
2022/07/27 06:03:08;;;;;;;;;;;;;;;24.39;60.50;99529.44;4452495;32;20609;-88
2022/07/27 06:05:34;;;;;;;;;;;;;;;24.43;60.49;99532.66;4453825;32;21808;-87
2022/07/27 06:07:59;;;;;;;;;;;;;;;24.40;60.50;99535.59;4454413;32;19997;-88
2022/07/27 06:10:34;;;;;;;;;;;;;;;24.56;60.51;99537.66;4439873;32;20026;-87
2022/07/27 06:13:03;;;;;;;;;;;;;;;24.72;60.51;99540.56;4433001;32;20356;-87
2022/07/27 06:15:28;;;;;;;;;;;;;;;24.97;60.53;99547.91;4428615;32;19994;-87
2022/07/27 06:17:53;;;;;;;;;;;;;;;25.38;60.54;99543.16;4457263;32;20027;-88
2022/07/27 06:20:19;;;;;;;;;;;;;;;25.38;60.54;99536.00;4440235;32;19999;-88
2022/07/27 06:22:48;;;;;;;;;;;;;;;25.39;60.54;99542.16;4452843;32;19973;-87
2022/07/27 06:25:13;;;;;;;;;;;;;;;25.43;60.55;99546.19;4454254;32;19999;-88
2022/07/27 06:27:38;;;;;;;;;;;;;;;25.61;60.56;99540.91;4429180;32;20001;-88
2022/07/27 06:30:04;;;;;;;;;;;;;;;25.80;60.57;99534.66;4440135;32;20371;-87
2022/07/27 06:32:29;;;;;;;;;;;;;;;25.88;60.58;99535.56;4452872;32;20276;-88
2022/07/27 06:34:54;;;;;;;;;;;;;;;26.09;60.58;99537.91;4454182;32;20006;-87
2022/07/27 06:37:20;;;;;;;;;;;;;;;26.28;60.59;99539.59;4439445;32;29561;-88
2022/07/27 06:39:45;;;;;;;;;;;;;;;26.43;60.61;99538.06;4453666;32;28598;-87
2022/07/27 06:42:13;;;;;;;;;;;;;;;26.62;60.61;99540.53;4454427;32;19969;-88
2022/07/27 06:44:38;;;;;;;;;;;;;;;26.74;60.62;99535.78;4448780;32;19981;-87
2022/07/27 06:47:03;;;;;;;;;;;;;;;26.89;60.64;99533.34;4440076;32;20025;-87
2022/07/27 06:49:28;;;;;;;;;;;;;;;27.00;60.63;99526.94;4439446;32;22619;-88
2022/07/27 06:51:54;;;;;;;;;;;;;;;27.21;60.65;99525.53;4440048;32;20001;-87
2022/07/27 06:54:19;;;;;;;;;;;;;;;27.42;60.65;99529.59;4453704;32;19985;-87
2022/07/27 06:56:45;;;;;;;;;;;;;;;27.83;60.68;99522.53;4454127;32;19981;-87
2022/07/27 06:59:10;;;;;;;;;;;;;;;28.01;60.69;99517.06;4453995;32;20333;-87
2022/07/27 07:01:35;;;;;;;;;;;;;;;28.17;60.70;99511.72;4453527;32;20703;-88
2022/07/27 07:04:01;;;;;;;;;;;;;;;28.32;60.70;99514.56;4451851;32;30921;-88
2022/07/27 07:06:26;;;;;;;;;;;;;;;28.45;60.70;99522.09;4439561;32;20009;-87
2022/07/27 07:08:51;;;;;;;;;;;;;;;28.38;60.71;99522.75;4439440;32;20277;-87
2022/07/27 07:11:17;;;;;;;;;;;;;;;28.38;60.71;99521.91;4453050;32;26456;-87
2022/07/27 07:13:42;;;;;;;;;;;;;;;28.48;60.72;99517.25;4438629;32;31081;-87
2022/07/27 07:16:07;;;;;;;;;;;;;;;28.85;60.73;99507.78;4438831;32;23072;-87
2022/07/27 07:18:32;;;;;;;;;;;;;;;28.67;60.72;99516.03;4438841;32;23794;-87
2022/07/27 07:20:58;;;;;;;;;;;;;;;28.78;60.73;99504.94;4452677;32;30937;-87
2022/07/27 07:23:23;;;;;;;;;;;;;;;28.97;60.73;99509.94;4455239;32;19989;-87
2022/07/27 07:25:48;;;;;;;;;;;;;;;29.14;60.74;99501.84;4440886;32;20364;-87
2022/07/27 07:28:13;;;;;;;;;;;;;;;29.06;60.74;99508.06;4440916;32;20387;-87
2022/07/27 07:30:38;;;;;;;;;;;;;;;29.24;60.75;99499.78;4453779;32;20270;-87
2022/07/27 07:33:04;;;;;;;;;;;;;;;29.22;60.75;99504.50;4454834;32;25090;-87
2022/07/27 07:35:29;;;;;;;;;;;;;;;29.14;60.75;99501.84;4455443;32;20510;-87
2022/07/27 07:37:54;;;;;;;;;;;;;;;29.10;60.75;99509.38;4453920;32;19993;-87
2022/07/27 07:40:19;;;;;;;;;;;;;;;29.25;60.76;99496.09;4455122;32;19961;-87
2022/07/27 07:42:51;;;;;;;;;;;;;;;29.17;60.74;99496.16;4436126;32;20009;-88
2022/07/27 07:45:17;;;;;;;;;;;;;;;29.53;60.77;99491.13;4451944;32;20008;-87
2022/07/27 07:47:42;;;;;;;;;;;;;;;29.52;60.77;99495.63;4455264;32;19989;-87
2022/07/27 07:50:08;;;;;;;;;;;;;;;29.41;60.77;99492.50;4438344;32;19977;-87
2022/07/27 07:52:33;;;;;;;;;;;;;;;29.52;60.77;99490.28;4447454;32;20035;-87
2022/07/27 07:54:58;;;;;;;;;;;;;;;29.59;60.77;99483.22;4455363;32;25107;-87
2022/07/27 07:57:23;;;;;;;;;;;;;;;29.82;60.79;99485.06;4456740;32;22133;-87
2022/07/27 07:59:48;;;;;;;;;;;;;;;29.77;60.78;99490.13;4454407;32;29242;-86
2022/07/27 08:02:14;;;;;;;;;;;;;;;29.53;60.77;99497.31;4454525;32;27381;-87
2022/07/27 08:04:39;;;;;;;;;;;;;;;29.49;60.77;99493.31;4440914;32;20363;-87
2022/07/27 08:07:05;;;;;;;;;;;;;;;29.49;60.77;99487.94;4441499;32;20016;-86
2022/07/27 08:09:30;;;;;;;;;;;;;;;29.48;60.76;99496.19;4455071;32;19992;-86
2022/07/27 08:11:55;;;;;;;;;;;;;;;29.39;60.76;99481.97;4454932;32;20079;-86
2022/07/27 08:14:22;;;;;;;;;;;;;;;29.60;60.77;99489.41;4455089;32;19996;-86
2022/07/27 08:16:47;;;;;;;;;;;;;;;29.58;60.78;99492.28;4441029;32;19995;-86
2022/07/27 08:19:12;;;;;;;;;;;;;;;29.53;60.77;99489.25;4437377;32;31814;-86
2022/07/27 08:21:37;;;;;;;;;;;;;;;29.52;60.78;99482.22;4447365;32;29465;-87
2022/07/27 08:24:03;;;;;;;;;;;;;;;29.55;60.77;99476.50;4454979;32;19991;-87
2022/07/27 08:26:29;;;;;;;;;;;;;;;29.76;60.79;99477.72;4440869;32;20033;-86
2022/07/27 08:28:54;;;;;;;;;;;;;;;29.97;60.80;99477.88;4454475;32;20014;-86
2022/07/27 08:31:19;;;;;;;;;;;;;;;29.83;60.80;99481.38;4454241;32;27561;-86
2022/07/27 08:33:44;;;;;;;;;;;;;;;29.88;60.80;99476.31;4439869;32;20007;-86
2022/07/27 08:36:10;;;;;;;;;;;;;;;30.04;60.81;99473.50;4454667;32;20038;-86
2022/07/27 08:38:35;;;;;;;;;;;;;;;30.17;60.81;99470.22;4454929;32;19981;-86
2022/07/27 08:41:00;;;;;;;;;;;;;;;30.40;60.82;99471.00;4440455;32;20151;-86
2022/07/27 08:43:26;;;;;;;;;;;;;;;30.44;60.83;99466.91;4454708;32;19984;-85
2022/07/27 08:45:55;;;;;;;;;;;;;;;30.63;60.83;99479.00;4440486;32;19997;-85
2022/07/27 08:48:20;;;;;;;;;;;;;;;30.77;60.84;99478.19;4427478;32;19997;-85
2022/07/27 08:50:49;;;;;;;;;;;;;;;30.67;60.85;99469.56;4440682;32;20045;-85
2022/07/27 08:53:15;;;;;;;;;;;;;;;30.77;60.84;99466.63;4454833;32;19993;-85
2022/07/27 08:55:42;;;;;;;;;;;;;;;31.00;60.85;99472.72;4454894;32;19973;-86
2022/07/27 08:58:07;;;;;;;;;;;;;;;31.08;60.86;99467.22;4453317;32;19978;-86
2022/07/27 09:00:33;;;;;;;;;;;;;;;31.15;60.87;99467.28;4440496;32;20028;-85
2022/07/27 09:02:58;;;;;;;;;;;;;;;31.18;60.86;99458.88;4454694;32;19997;-86
2022/07/27 09:05:23;;;;;;;;;;;;;;;31.21;60.86;99466.56;4440490;32;19968;-86
2022/07/27 09:07:49;;;;;;;;;;;;;;;31.42;60.87;99465.78;4454617;32;20424;-86
2022/07/27 09:10:33;;;;;;;;;;;;;;;31.54;60.87;99464.28;4440389;32;20051;-85
2022/07/27 09:12:58;;;;;;;;;;;;;;;31.61;60.88;99459.78;4440450;32;19985;-84
2022/07/27 09:15:23;;;;;;;;;;;;;;;31.55;60.88;99463.25;4454485;32;20016;-85
2022/07/27 09:17:49;;;;;;;;;;;;;;;31.68;60.89;99460.66;4439845;32;26395;-85
2022/07/27 09:20:17;;;;;;;;;;;;;;;31.92;60.89;99459.47;4454568;32;20042;-85
2022/07/27 09:22:52;;;;;;;;;;;;;;;32.23;60.91;99456.44;4426673;32;20008;-85
2022/07/27 09:25:19;;;;;;;;;;;;;;;32.41;60.92;99463.22;4437752;32;19981;-85
2022/07/27 09:27:48;;;;;;;;;;;;;;;32.56;60.93;99453.16;4453934;32;19995;-85
2022/07/27 09:30:14;;;;;;;;;;;;;;;32.64;60.93;99451.13;4453237;32;20089;-85
2022/07/27 09:32:50;;;;;;;;;;;;;;;32.52;60.93;99447.34;4454237;32;20342;-84
2022/07/27 09:35:16;;;;;;;;;;;;;;;32.65;60.93;99446.56;4454518;32;20383;-85
2022/07/27 09:37:41;;;;;;;;;;;;;;;32.72;60.94;99444.75;4454506;32;19977;-85
2022/07/27 09:40:14;;;;;;;;;;;;;;;32.88;60.94;99444.44;4453854;32;27553;-85
2022/07/27 09:42:39;;;;;;;;;;;;;;;33.18;60.96;99441.47;4454225;32;19992;-86
2022/07/27 09:45:07;;;;;;;;;;;;;;;33.17;60.96;99443.34;4454051;32;20009;-85
2022/07/27 09:47:33;;;;;;;;;;;;;;;33.35;60.97;99447.34;4440667;32;19977;-86
2022/07/27 09:50:17;;;;;;;;;;;;;;;33.58;60.99;99445.94;4454463;32;20016;-85
2022/07/27 09:52:43;;;;;;;;;;;;;;;33.54;60.98;99442.00;4454679;32;19993;-85
2022/07/27 09:55:08;;;;;;;;;;;;;;;33.52;60.97;99448.62;4440120;32;20019;-86
2022/07/27 09:57:49;;;;;;;;;;;;;;;33.52;60.98;99437.84;4440462;32;19973;-86
2022/07/27 10:00:14;;;;;;;;;;;;;;;33.75;60.99;99438.28;4454632;32;20013;-86
2022/07/27 10:02:40;;;;;;;;;;;;;;;34.14;61.01;99439.38;4454554;32;20375;-86
2022/07/27 10:05:06;;;;;;;;;;;;;;;34.40;61.02;99446.66;4440486;32;20336;-86
2022/07/27 10:07:31;;;;;;;;;;;;;;;34.36;61.03;99443.56;4454605;32;20305;-86
2022/07/27 10:09:56;;;;;;;;;;;;;;;34.09;61.01;99437.31;4454436;32;20001;-86
2022/07/27 10:12:21;;;;;;;;;;;;;;;33.84;60.99;99445.22;4453858;32;24601;-86
2022/07/27 10:14:47;;;;;;;;;;;;;;;33.93;61.00;99440.41;4453978;32;21651;-86
2022/07/27 10:17:12;;;;;;;;;;;;;;;34.07;61.01;99438.53;4453692;32;30942;-86
2022/07/27 10:19:49;;;;;;;;;;;;;;;34.41;61.02;99432.94;4439957;32;20025;-87
2022/07/27 10:22:14;;;;;;;;;;;;;;;34.73;61.04;99439.28;4440281;32;20030;-87
2022/07/27 10:24:39;;;;;;;;;;;;;;;34.76;61.03;99432.62;4453927;32;19973;-87
2022/07/27 10:27:21;;;;;;;;;;;;;;;34.78;61.04;99425.12;4439426;32;26261;-87
2022/07/27 10:29:46;;;;;;;;;;;;;;;34.95;61.05;99429.06;4439816;32;19988;-87
2022/07/27 10:32:12;;;;;;;;;;;;;;;35.17;61.06;99426.03;4453999;32;19989;-87
2022/07/27 10:34:41;;;;;;;;;;;;;;;35.17;61.06;99428.75;4439871;32;19996;-87
2022/07/27 10:37:07;;;;;;;;;;;;;;;35.08;61.05;99420.88;4439966;32;19991;-86
2022/07/27 10:39:33;;;;;;;;;;;;;;;35.39;61.07;99416.56;4453923;32;20003;-87
2022/07/27 10:42:17;;;;;;;;;;;;;;;35.50;61.08;99412.38;4439745;32;20031;-87
2022/07/27 10:45:00;;;;;;;;;;;;;;;35.58;61.09;99410.22;4453862;32;19973;-87
2022/07/27 10:47:27;;;;;;;;;;;;;;;35.58;61.08;99403.97;4454013;32;20277;-87
2022/07/27 10:50:05;;;;;;;;;;;;;;;35.69;61.09;99404.06;4439585;32;20002;-87
2022/07/27 10:52:43;;;;;;;;;;;;;;;35.88;61.09;99406.87;4439954;32;20008;-87
2022/07/27 10:55:27;;;;;;;;;;;;;;;35.41;61.08;99406.34;4453865;32;20036;-87
2022/07/27 10:57:53;;;;;;;;;;;;;;;35.19;61.06;99413.94;4451457;32;19987;-87
2022/07/27 11:00:18;;;;;;;;;;;;;;;35.22;61.07;99410.81;4439790;32;19989;-87
2022/07/27 11:02:45;;;;;;;;;;;;;;;35.03;61.05;99420.72;4432109;32;20370;-87
2022/07/27 11:05:10;;;;;;;;;;;;;;;34.89;61.05;99405.56;4448823;32;20038;-87
2022/07/27 11:07:35;;;;;;;;;;;;;;;34.76;61.05;99406.41;4452403;32;19993;-87
2022/07/27 11:10:02;;;;;;;;;;;;;;;34.97;61.05;99404.50;4453610;32;19993;-87
2022/07/27 11:12:27;;;;;;;;;;;;;;;34.93;61.06;99400.56;4452282;32;20491;-87
2022/07/27 11:14:53;;;;;;;;;;;;;;;35.09;61.06;99394.66;4453648;32;19995;-87
2022/07/27 11:17:20;;;;;;;;;;;;;;;35.50;61.08;99393.41;4453824;32;19969;-88
2022/07/27 11:19:50;;;;;;;;;;;;;;;35.93;61.10;99390.78;4432121;32;20014;-87
2022/07/27 11:22:15;;;;;;;;;;;;;;;36.27;61.11;99382.13;4438484;32;20031;-87
2022/07/27 11:24:40;;;;;;;;;;;;;;;36.13;61.10;99367.03;4442905;32;20001;-87
2022/07/27 11:27:06;;;;;;;;;;;;;;;36.05;61.10;99377.34;4452610;32;30111;-87
2022/07/27 11:29:35;;;;;;;;;;;;;;;36.20;61.12;99375.97;4438175;32;33609;-87
2022/07/27 11:32:00;;;;;;;;;;;;;;;36.19;61.11;99381.56;4453344;32;19985;-87
2022/07/27 11:34:29;;;;;;;;;;;;;;;36.32;61.12;99376.06;4438978;32;20011;-87
2022/07/27 11:36:55;;;;;;;;;;;;;;;36.65;61.13;99375.66;4453367;32;20266;-88
2022/07/27 11:39:23;;;;;;;;;;;;;;;36.82;61.14;99373.19;4451868;32;20334;-88
2022/07/27 11:41:48;;;;;;;;;;;;;;;36.92;61.14;99368.09;4453351;32;19985;-88
2022/07/27 11:44:14;;;;;;;;;;;;;;;36.63;61.14;99377.78;4444132;32;26422;-87
2022/07/27 11:46:43;;;;;;;;;;;;;;;36.47;61.13;99375.69;4453156;32;19984;-87
2022/07/27 11:49:12;;;;;;;;;;;;;;;36.51;61.12;99376.91;4438962;32;20001;-88
2022/07/27 11:51:38;;;;;;;;;;;;;;;36.73;61.14;99378.09;4453131;32;19981;-88
2022/07/27 11:54:04;;;;;;;;;;;;;;;36.89;61.14;99372.06;4453198;32;20333;-88
2022/07/27 11:56:31;;;;;;;;;;;;;;;36.75;61.14;99381.41;4438979;32;19981;-87
2022/07/27 11:58:56;;;;;;;;;;;;;;;36.74;61.14;99381.63;4436342;32;20090;-88
2022/07/27 12:01:35;;;;;;;;;;;;;;;36.90;61.15;99372.88;4430278;32;20311;-87
2022/07/27 12:04:04;;;;;;;;;;;;;;;36.94;61.16;99371.38;4427713;32;19988;-87
2022/07/27 12:06:33;;;;;;;;;;;;;;;36.89;61.15;99374.75;4438735;32;20376;-88
2022/07/27 12:08:59;;;;;;;;;;;;;;;37.17;61.16;99365.22;4440256;32;19996;-88
2022/07/27 12:11:28;;;;;;;;;;;;;;;36.97;61.15;99365.50;4432596;32;20033;-89
2022/07/27 12:13:57;;;;;;;;;;;;;;;36.86;61.15;99358.94;4452837;32;20375;-88
2022/07/27 12:16:22;;;;;;;;;;;;;;;36.73;61.14;99352.84;4441098;32;20022;-88
2022/07/27 12:18:47;;;;;;;;;;;;;;;36.99;61.15;99340.84;4454088;32;30954;-88
2022/07/27 12:21:17;;;;;;;;;;;;;;;36.92;61.15;99348.25;4454747;32;21554;-88
2022/07/27 12:23:49;;;;;;;;;;;;;;;36.93;61.15;99341.78;4440811;32;19981;-88
2022/07/27 12:26:18;;;;;;;;;;;;;;;37.04;61.16;99343.69;4441159;32;20318;-88
2022/07/27 12:28:43;;;;;;;;;;;;;;;37.15;61.16;99332.88;4440724;32;20860;-88
2022/07/27 12:31:15;;;;;;;;;;;;;;;37.27;61.17;99334.81;4440676;32;19993;-88
2022/07/27 12:33:40;;;;;;;;;;;;;;;37.17;61.16;99332.66;4455151;32;19988;-89
2022/07/27 12:36:06;;;;;;;;;;;;;;;37.25;61.16;99329.63;4454937;32;19961;-88
2022/07/27 12:38:35;;;;;;;;;;;;;;;37.23;61.17;99334.44;4440914;32;20012;-89
2022/07/27 12:41:00;;;;;;;;;;;;;;;37.37;61.17;99327.75;4440797;32;19993;-88
2022/07/27 12:43:26;;;;;;;;;;;;;;;37.55;61.18;99324.13;4452376;32;23449;-88
2022/07/27 12:45:52;;;;;;;;;;;;;;;37.71;61.19;99330.75;4458459;32;19981;-88